createdAt,value
2022-08-20T00:04:50.838Z,26.27
2022-08-20T00:09:53.782Z,26.06
2022-08-20T00:14:56.797Z,25.87
2022-08-20T00:19:59.801Z,26.03
2022-08-20T00:25:06.306Z,26.23
2022-08-20T00:30:12.224Z,26.66
2022-08-20T00:35:20.285Z,26.78
2022-08-20T00:40:28.226Z,26.76
2022-08-20T00:45:32.883Z,26.89
2022-08-20T00:50:38.484Z,26.99
2022-08-20T00:55:42.861Z,27.00
2022-08-20T01:00:48.196Z,26.85
2022-08-20T01:05:52.163Z,26.76
2022-08-20T01:11:10.718Z,26.71
2022-08-20T01:16:22.223Z,26.88
2022-08-20T01:21:33.934Z,27.00
2022-08-20T01:26:43.993Z,26.97
2022-08-20T01:31:46.841Z,26.68
2022-08-20T01:36:54.217Z,26.45
2022-08-20T01:42:07.261Z,26.57
2022-08-20T01:47:13.036Z,26.38
2022-08-20T01:52:45.428Z,26.17
2022-08-20T01:57:48.722Z,26.34
2022-08-20T02:02:52.149Z,25.86
2022-08-20T02:07:55.671Z,25.68
2022-08-20T02:13:00.089Z,25.52
2022-08-20T02:18:08.511Z,25.52
2022-08-20T02:23:12.320Z,25.66
2022-08-20T02:28:20.808Z,25.50
2022-08-20T02:33:24.612Z,25.61
2022-08-20T02:38:27.768Z,25.89
2022-08-20T02:43:32.395Z,25.92
2022-08-20T02:48:35.599Z,25.82
2022-08-20T02:53:42.042Z,26.09
2022-08-20T02:58:45.919Z,26.03
2022-08-20T03:03:48.919Z,25.94
2022-08-20T03:08:52.133Z,25.84
2022-08-20T03:13:55.136Z,26.10
2022-08-20T03:19:00.498Z,26.20
2022-08-20T03:24:03.780Z,26.38
2022-08-20T03:29:07.025Z,26.36
2022-08-20T03:34:10.031Z,26.39
2022-08-20T03:39:13.753Z,26.56
2022-08-20T03:44:16.761Z,26.68
2022-08-20T03:49:20.079Z,26.49
2022-08-20T03:54:22.976Z,26.44
2022-08-20T03:59:25.984Z,26.51
2022-08-20T04:04:28.994Z,26.66
2022-08-20T04:09:31.925Z,26.64
2022-08-20T04:14:38.178Z,26.58
2022-08-20T04:19:42.514Z,26.52
2022-08-20T04:24:45.726Z,26.59
2022-08-20T04:29:48.738Z,26.58
2022-08-20T04:34:52.415Z,26.50
2022-08-20T04:40:14.121Z,26.78
2022-08-20T04:45:17.848Z,27.02
2022-08-20T04:50:21.368Z,27.02
2022-08-20T04:55:24.386Z,27.12
2022-08-20T05:00:27.458Z,27.17
2022-08-20T05:05:31.182Z,27.18
2022-08-20T05:10:35.006Z,27.29
2022-08-20T05:15:39.174Z,26.90
2022-08-20T05:20:42.609Z,27.12
2022-08-20T05:25:48.468Z,27.58
2022-08-20T05:30:53.997Z,27.52
2022-08-20T05:35:58.954Z,27.47
2022-08-20T05:41:02.767Z,27.36
2022-08-20T05:46:05.880Z,27.86
2022-08-20T05:51:12.103Z,27.17
2022-08-20T05:56:17.732Z,26.96
2022-08-20T06:01:20.960Z,27.15
2022-08-20T06:06:39.031Z,27.02
2022-08-20T06:11:47.438Z,26.77
2022-08-20T06:16:57.364Z,27.06
2022-08-20T06:22:03.453Z,27.29
2022-08-20T06:27:21.357Z,26.45
2022-08-20T06:32:32.465Z,26.75
2022-08-20T06:37:39.590Z,27.18
2022-08-20T06:42:48.063Z,26.90
2022-08-20T06:47:53.425Z,27.07
2022-08-20T06:52:57.508Z,28.00
2022-08-20T06:58:03.853Z,27.20
2022-08-20T07:03:07.272Z,27.22
2022-08-20T07:08:12.022Z,27.90
2022-08-20T07:13:16.761Z,27.44
2022-08-20T07:18:28.686Z,26.79
2022-08-20T07:23:32.094Z,27.53
2022-08-20T07:28:35.100Z,27.30
2022-08-20T07:33:40.373Z,26.34
2022-08-20T07:38:47.221Z,26.95
2022-08-20T07:43:50.168Z,27.19
2022-08-20T07:48:53.184Z,26.51
2022-08-20T07:53:58.444Z,26.52
2022-08-20T07:59:01.845Z,26.81
2022-08-20T08:04:05.162Z,26.89
2022-08-20T08:09:11.785Z,26.46
2022-08-20T08:14:19.790Z,26.46
2022-08-20T08:19:23.603Z,28.13
2022-08-20T08:24:28.611Z,27.67
2022-08-20T08:29:31.766Z,27.17
2022-08-20T08:34:37.431Z,27.18
2022-08-20T08:39:40.502Z,27.32
2022-08-20T08:44:44.973Z,27.63
2022-08-20T08:49:48.640Z,28.62
2022-08-20T08:54:58.560Z,29.41
2022-08-20T09:00:10.336Z,29.45
2022-08-20T09:05:17.019Z,29.43
2022-08-20T09:10:22.912Z,29.26
2022-08-20T09:15:27.698Z,28.71
2022-08-20T09:20:31.420Z,28.45
2022-08-20T09:25:34.838Z,28.46
2022-08-20T09:30:37.945Z,28.43
2022-08-20T09:35:41.568Z,28.65
2022-08-20T09:40:47.646Z,28.80
2022-08-20T09:45:50.956Z,29.05
2022-08-20T09:50:54.275Z,29.00
2022-08-20T09:55:58.910Z,28.79
2022-08-20T10:01:15.191Z,28.38
2022-08-20T10:06:22.644Z,27.96
2022-08-20T10:11:25.654Z,27.75
2022-08-20T10:16:30.296Z,27.79
2022-08-20T10:21:38.884Z,27.75
2022-08-20T10:26:42.584Z,27.81
2022-08-20T10:31:45.561Z,27.92
2022-08-20T10:36:48.577Z,27.89
2022-08-20T10:41:51.608Z,27.84
2022-08-20T10:46:57.195Z,27.72
2022-08-20T10:52:00.771Z,27.66
2022-08-20T10:57:05.007Z,27.80
2022-08-20T11:02:08.783Z,28.14
2022-08-20T11:07:21.919Z,28.56
2022-08-20T11:12:46.365Z,28.77
2022-08-20T11:17:50.093Z,28.81
2022-08-20T11:22:54.693Z,28.98
2022-08-20T11:27:59.025Z,29.30
2022-08-20T11:33:03.035Z,29.72
2022-08-20T11:38:06.180Z,30.13
2022-08-20T11:43:14.589Z,30.42
2022-08-20T11:48:18.843Z,30.50
2022-08-20T11:53:22.314Z,30.42
2022-08-20T11:58:25.538Z,30.22
2022-08-20T12:03:28.833Z,29.94
2022-08-20T12:08:31.837Z,29.74
2022-08-20T12:13:48.554Z,29.74
2022-08-20T12:18:52.816Z,29.95
2022-08-20T12:23:55.739Z,30.27
2022-08-20T12:28:59.332Z,30.68
2022-08-20T12:34:02.335Z,31.10
2022-08-20T12:39:05.339Z,31.28
2022-08-20T12:44:10.636Z,31.24
2022-08-20T12:49:16.890Z,31.03
2022-08-20T12:54:19.888Z,30.89
2022-08-20T12:59:26.052Z,30.81
2022-08-20T13:04:30.925Z,30.67
2022-08-20T13:09:34.381Z,30.64
2022-08-20T13:14:38.815Z,30.57
2022-08-20T13:19:41.786Z,30.31
2022-08-20T13:24:44.994Z,30.19
2022-08-20T13:29:58.359Z,30.43
2022-08-20T13:35:02.318Z,30.62
2022-08-20T13:40:08.164Z,30.63
2022-08-20T13:45:14.227Z,30.47
2022-08-20T13:50:20.425Z,30.27
2022-08-20T13:55:25.700Z,30.15
2022-08-20T14:00:32.582Z,30.21
2022-08-20T14:05:36.110Z,30.34
2022-08-20T14:10:42.708Z,30.26
2022-08-20T14:15:46.217Z,29.83
2022-08-20T14:20:49.740Z,28.93
2022-08-20T14:25:52.818Z,28.90
2022-08-20T14:30:55.832Z,28.28
2022-08-20T14:35:59.068Z,28.73
2022-08-20T14:41:02.347Z,27.89
2022-08-20T14:46:05.498Z,28.53
2022-08-20T14:51:10.454Z,27.94
2022-08-20T14:56:13.618Z,28.14
2022-08-20T15:01:16.791Z,28.89
2022-08-20T15:06:21.989Z,27.91
2022-08-20T15:11:32.425Z,28.69
2022-08-20T15:16:37.529Z,28.60
2022-08-20T15:21:45.097Z,27.60
2022-08-20T15:26:48.964Z,28.50
2022-08-20T15:31:51.973Z,28.42
2022-08-20T15:36:57.648Z,28.04
2022-08-20T15:42:00.652Z,29.49
2022-08-20T15:47:34.470Z,29.59
2022-08-20T15:52:42.213Z,28.18
2022-08-20T15:58:06.399Z,28.00
2022-08-20T16:03:18.724Z,29.14
2022-08-20T16:08:49.627Z,29.12
2022-08-20T16:14:03.235Z,27.71
2022-08-20T16:19:16.905Z,27.87
2022-08-20T16:24:21.222Z,28.87
2022-08-20T16:29:49.327Z,29.19
2022-08-20T16:35:00.670Z,27.78
2022-08-20T16:40:22.720Z,27.95
2022-08-20T16:45:45.652Z,28.40
2022-08-20T16:51:01.337Z,28.73
2022-08-20T16:56:05.601Z,28.56
2022-08-20T17:01:15.100Z,28.41
2022-08-20T17:06:37.821Z,28.00
2022-08-20T17:11:42.879Z,28.43
2022-08-20T17:16:52.668Z,28.74
2022-08-20T17:21:57.367Z,28.61
2022-08-20T17:27:10.868Z,28.56
2022-08-20T17:32:26.964Z,28.29
2022-08-20T17:37:39.792Z,28.41
2022-08-20T17:43:01.656Z,28.58
2022-08-20T17:48:13.758Z,28.15
2022-08-20T17:53:24.480Z,28.07
2022-08-20T17:58:54.897Z,28.12
2022-08-20T18:03:59.335Z,28.32
2022-08-20T18:09:11.666Z,28.54
2022-08-20T18:14:52.366Z,28.61
2022-08-20T18:20:13.803Z,28.02
2022-08-20T18:25:27.245Z,28.13
2022-08-20T18:30:33.264Z,28.32
2022-08-20T18:35:36.223Z,28.21
2022-08-20T18:40:40.467Z,28.08
2022-08-20T18:45:43.566Z,27.97
2022-08-20T18:50:50.874Z,27.61
2022-08-20T18:56:07.124Z,27.03
2022-08-20T19:01:13.713Z,27.14
2022-08-20T19:06:33.788Z,27.22
2022-08-20T19:11:55.332Z,27.58
2022-08-20T19:17:15.572Z,27.57
2022-08-20T19:22:28.259Z,27.86
2022-08-20T19:27:32.355Z,27.90
2022-08-20T19:32:35.346Z,27.72
2022-08-20T19:37:51.183Z,27.60
2022-08-20T19:42:56.457Z,27.57
2022-08-20T19:48:13.211Z,26.86
2022-08-20T19:53:30.761Z,26.30
2022-08-20T19:58:34.834Z,26.50
2022-08-20T20:03:38.773Z,26.66
2022-08-20T20:09:13.365Z,26.31
2022-08-20T20:14:18.784Z,26.31
2022-08-20T20:19:26.786Z,26.29
2022-08-20T20:24:42.456Z,26.37
2022-08-20T20:29:45.666Z,26.41
2022-08-20T20:34:58.502Z,26.32
2022-08-20T20:40:13.016Z,26.45
2022-08-20T20:45:44.667Z,26.35
